sensor_id;sensor_type;location;lat;lon;timestamp;temperature;humidity
20315;DHT22;10315;50.958;13.080;2023-02-19T07:31:09;7.50;99.90
20315;DHT22;10315;50.958;13.080;2023-02-19T07:41:11;7.50;99.90
20315;DHT22;10315;50.958;13.080;2023-02-19T07:51:15;7.60;99.90
20315;DHT22;10315;50.958;13.080;2023-02-19T08:01:22;7.50;99.90
20315;DHT22;10315;50.958;13.080;2023-02-19T08:11:45;7.60;99.90
20315;DHT22;10315;50.958;13.080;2023-02-19T08:22:05;7.40;99.90
20315;DHT22;10315;50.958;13.080;2023-02-19T08:32:08;6.50;99.90
20315;DHT22;10315;50.958;13.080;2023-02-19T08:42:09;5.80;99.90
20315;DHT22;10315;50.958;13.080;2023-02-19T08:52:12;5.50;99.90
20315;DHT22;10315;50.958;13.080;2023-02-19T09:02:14;5.30;99.90
20315;DHT22;10315;50.958;13.080;2023-02-19T09:12:16;5.20;99.90
20315;DHT22;10315;50.958;13.080;2023-02-19T09:22:18;5.10;99.90
20315;DHT22;10315;50.958;13.080;2023-02-19T09:32:21;5.10;99.90
20315;DHT22;10315;50.958;13.080;2023-02-19T09:42:25;4.70;99.90
20315;DHT22;10315;50.958;13.080;2023-02-19T09:52:34;4.30;99.90
20315;DHT22;10315;50.958;13.080;2023-02-19T10:02:37;4.10;99.90
20315;DHT22;10315;50.958;13.080;2023-02-19T10:12:45;4.00;99.90
20315;DHT22;10315;50.958;13.080;2023-02-19T10:22:47;3.80;99.90
20315;DHT22;10315;50.958;13.080;2023-02-19T10:33:02;4.20;99.90
20315;DHT22;10315;50.958;13.080;2023-02-19T10:43:22;4.70;99.90
20315;DHT22;10315;50.958;13.080;2023-02-19T10:53:44;5.20;99.90
20315;DHT22;10315;50.958;13.080;2023-02-19T11:03:47;5.30;99.90
20315;DHT22;10315;50.958;13.080;2023-02-19T11:13:50;5.30;99.90
20315;DHT22;10315;50.958;13.080;2023-02-19T11:23:52;5.50;99.90
20315;DHT22;10315;50.958;13.080;2023-02-19T11:33:59;5.90;99.90
20315;DHT22;10315;50.958;13.080;2023-02-19T11:44:12;5.80;99.90
20315;DHT22;10315;50.958;13.080;2023-02-19T11:54:39;5.50;99.90
20315;DHT22;10315;50.958;13.080;2023-02-19T12:05:00;5.30;99.90
20315;DHT22;10315;50.958;13.080;2023-02-19T12:15:28;5.60;99.90
20315;DHT22;10315;50.958;13.080;2023-02-19T12:25:44;5.30;99.90
20315;DHT22;10315;50.958;13.080;2023-02-19T12:35:56;5.30;99.90
20315;DHT22;10315;50.958;13.080;2023-02-19T12:46:03;5.60;99.90
20315;DHT22;10315;50.958;13.080;2023-02-19T12:56:12;5.90;99.90
20315;DHT22;10315;50.958;13.080;2023-02-19T13:06:25;5.90;99.90
20315;DHT22;10315;50.958;13.080;2023-02-19T13:16:33;5.80;99.90
20315;DHT22;10315;50.958;13.080;2023-02-19T13:26:58;5.60;99.90
20315;DHT22;10315;50.958;13.080;2023-02-19T13:37:04;5.80;99.90
20315;DHT22;10315;50.958;13.080;2023-02-19T13:47:44;5.70;99.90
20315;DHT22;10315;50.958;13.080;2023-02-19T13:57:48;5.00;99.90
20315;DHT22;10315;50.958;13.080;2023-02-19T14:07:52;4.60;99.90
20315;DHT22;10315;50.958;13.080;2023-02-19T14:17:55;4.80;99.90
20315;DHT22;10315;50.958;13.080;2023-02-19T14:28:00;5.30;99.90
20315;DHT22;10315;50.958;13.080;2023-02-19T14:38:05;4.90;99.90
20315;DHT22;10315;50.958;13.080;2023-02-19T14:48:16;5.10;99.90
20315;DHT22;10315;50.958;13.080;2023-02-19T14:58:22;5.40;99.90
20315;DHT22;10315;50.958;13.080;2023-02-19T15:08:31;5.30;99.90
20315;DHT22;10315;50.958;13.080;2023-02-19T15:18:35;5.20;99.90
20315;DHT22;10315;50.958;13.080;2023-02-19T15:28:38;5.40;99.90
20315;DHT22;10315;50.958;13.080;2023-02-19T15:38:41;5.30;99.90
20315;DHT22;10315;50.958;13.080;2023-02-19T15:48:46;5.70;99.90
20315;DHT22;10315;50.958;13.080;2023-02-19T15:58:52;5.00;99.90
20315;DHT22;10315;50.958;13.080;2023-02-19T16:09:01;4.30;99.90
20315;DHT22;10315;50.958;13.080;2023-02-19T16:19:05;3.60;99.90
20315;DHT22;10315;50.958;13.080;2023-02-19T16:29:16;3.10;99.90
20315;DHT22;10315;50.958;13.080;2023-02-19T16:39:24;2.70;99.90
20315;DHT22;10315;50.958;13.080;2023-02-19T16:49:25;2.30;99.90
20315;DHT22;10315;50.958;13.080;2023-02-19T16:59:28;2.00;99.90
20315;DHT22;10315;50.958;13.080;2023-02-19T17:09:30;1.90;99.90
20315;DHT22;10315;50.958;13.080;2023-02-19T17:19:33;1.80;99.90
20315;DHT22;10315;50.958;13.080;2023-02-19T17:29:34;1.90;99.90
20315;DHT22;10315;50.958;13.080;2023-02-19T17:39:37;1.60;99.90
20315;DHT22;10315;50.958;13.080;2023-02-19T17:49:39;1.10;99.90
20315;DHT22;10315;50.958;13.080;2023-02-19T17:59:42;0.90;99.90
20315;DHT22;10315;50.958;13.080;2023-02-19T18:09:44;0.80;99.90
20315;DHT22;10315;50.958;13.080;2023-02-19T18:19:46;0.70;99.90
20315;DHT22;10315;50.958;13.080;2023-02-19T18:29:49;1.40;99.90
20315;DHT22;10315;50.958;13.080;2023-02-19T18:39:53;1.20;99.90
20315;DHT22;10315;50.958;13.080;2023-02-19T18:49:56;1.10;99.90
20315;DHT22;10315;50.958;13.080;2023-02-19T18:59:59;1.30;99.90
20315;DHT22;10315;50.958;13.080;2023-02-19T19:10:04;1.10;99.90
20315;DHT22;10315;50.958;13.080;2023-02-19T19:20:13;1.40;99.90
20315;DHT22;10315;50.958;13.080;2023-02-19T19:30:17;1.30;99.90
20315;DHT22;10315;50.958;13.080;2023-02-19T19:40:20;1.20;99.90
20315;DHT22;10315;50.958;13.080;2023-02-19T19:50:22;1.10;99.90
20315;DHT22;10315;50.958;13.080;2023-02-19T20:00:25;1.20;99.90
20315;DHT22;10315;50.958;13.080;2023-02-19T20:10:26;1.30;99.90
20315;DHT22;10315;50.958;13.080;2023-02-19T20:20:29;1.00;99.90
20315;DHT22;10315;50.958;13.080;2023-02-19T20:30:31;0.80;99.90
20315;DHT22;10315;50.958;13.080;2023-02-19T20:40:34;0.80;99.90
20315;DHT22;10315;50.958;13.080;2023-02-19T20:50:35;0.90;99.90
20315;DHT22;10315;50.958;13.080;2023-02-19T21:00:38;1.10;99.90
20315;DHT22;10315;50.958;13.080;2023-02-19T21:10:40;1.00;99.90
20315;DHT22;10315;50.958;13.080;2023-02-19T21:20:43;1.00;99.90
20315;DHT22;10315;50.958;13.080;2023-02-19T21:30:45;1.10;99.90
20315;DHT22;10315;50.958;13.080;2023-02-19T21:40:47;1.10;99.90
20315;DHT22;10315;50.958;13.080;2023-02-19T21:50:49;1.30;99.90
20315;DHT22;10315;50.958;13.080;2023-02-19T22:00:52;1.40;99.90
20315;DHT22;10315;50.958;13.080;2023-02-19T22:10:57;1.60;99.90
20315;DHT22;10315;50.958;13.080;2023-02-19T22:21:08;1.70;99.90
20315;DHT22;10315;50.958;13.080;2023-02-19T22:31:10;1.60;99.90
20315;DHT22;10315;50.958;13.080;2023-02-19T22:41:20;1.80;99.90
20315;DHT22;10315;50.958;13.080;2023-02-19T22:51:23;1.90;99.90
20315;DHT22;10315;50.958;13.080;2023-02-19T23:01:28;2.00;99.90
20315;DHT22;10315;50.958;13.080;2023-02-19T23:11:32;2.10;99.90
20315;DHT22;10315;50.958;13.080;2023-02-19T23:21:36;2.10;99.90
20315;DHT22;10315;50.958;13.080;2023-02-19T23:31:37;2.20;99.90
20315;DHT22;10315;50.958;13.080;2023-02-19T23:41:46;2.30;99.90
20315;DHT22;10315;50.958;13.080;2023-02-19T23:51:48;2.40;99.90
